sensor_id;sensor_type;location;lat;lon;timestamp;pressure;altitude;pressure_sealevel;temperature;humidity
56518;BME280;42419;48.760;2.322;2023-09-07T00:00:14;100891.78;;;27.98;41.81
56518;BME280;42419;48.760;2.322;2023-09-07T00:02:39;100888.34;;;27.96;41.56
56518;BME280;42419;48.760;2.322;2023-09-07T00:05:08;100891.13;;;27.95;41.42
56518;BME280;42419;48.760;2.322;2023-09-07T00:07:34;100890.25;;;27.94;41.37
56518;BME280;42419;48.760;2.322;2023-09-07T00:09:59;100881.59;;;27.89;41.45
56518;BME280;42419;48.760;2.322;2023-09-07T00:12:25;100880.97;;;27.86;41.40
56518;BME280;42419;48.760;2.322;2023-09-07T00:14:51;100878.78;;;27.91;41.38
56518;BME280;42419;48.760;2.322;2023-09-07T00:17:17;100877.06;;;27.90;41.72
56518;BME280;42419;48.760;2.322;2023-09-07T00:19:42;100870.34;;;27.83;41.83
56518;BME280;42419;48.760;2.322;2023-09-07T00:22:07;100871.22;;;27.83;41.59
56518;BME280;42419;48.760;2.322;2023-09-07T00:24:34;100864.28;;;27.79;41.09
56518;BME280;42419;48.760;2.322;2023-09-07T00:27:00;100879.13;;;27.86;41.51
56518;BME280;42419;48.760;2.322;2023-09-07T00:29:25;100862.47;;;27.80;41.31
56518;BME280;42419;48.760;2.322;2023-09-07T00:31:50;100876.50;;;27.85;41.43
56518;BME280;42419;48.760;2.322;2023-09-07T00:34:15;100876.63;;;27.83;41.29
56518;BME280;42419;48.760;2.322;2023-09-07T00:36:41;100876.72;;;27.82;41.81
56518;BME280;42419;48.760;2.322;2023-09-07T00:39:07;100881.28;;;27.81;41.43
56518;BME280;42419;48.760;2.322;2023-09-07T00:41:33;100871.78;;;27.76;41.31
56518;BME280;42419;48.760;2.322;2023-09-07T00:43:58;100878.69;;;27.80;41.36
56518;BME280;42419;48.760;2.322;2023-09-07T00:46:24;100875.13;;;27.79;41.37
56518;BME280;42419;48.760;2.322;2023-09-07T00:48:49;100885.94;;;27.79;41.41
56518;BME280;42419;48.760;2.322;2023-09-07T00:51:15;100873.59;;;27.75;41.28
56518;BME280;42419;48.760;2.322;2023-09-07T00:53:41;100871.78;;;27.76;41.03
56518;BME280;42419;48.760;2.322;2023-09-07T00:56:07;100879.03;;;27.75;41.12
56518;BME280;42419;48.760;2.322;2023-09-07T00:58:32;100872.94;;;27.72;41.29
56518;BME280;42419;48.760;2.322;2023-09-07T01:00:59;100878.25;;;27.73;41.11
56518;BME280;42419;48.760;2.322;2023-09-07T01:03:24;100858.00;;;27.66;41.33
56518;BME280;42419;48.760;2.322;2023-09-07T01:08:25;100872.09;;;27.71;40.89
56518;BME280;42419;48.760;2.322;2023-09-07T01:10:51;100860.59;;;27.67;41.43
56518;BME280;42419;48.760;2.322;2023-09-07T01:13:18;100871.22;;;27.71;41.04
56518;BME280;42419;48.760;2.322;2023-09-07T01:15:44;100870.44;;;27.68;41.00
56518;BME280;42419;48.760;2.322;2023-09-07T01:18:10;100872.19;;;27.70;41.09
56518;BME280;42419;48.760;2.322;2023-09-07T01:20:36;100877.69;;;27.68;41.15
56518;BME280;42419;48.760;2.322;2023-09-07T01:23:03;100868.84;;;27.66;40.94
56518;BME280;42419;48.760;2.322;2023-09-07T01:25:29;100864.28;;;27.66;41.12
56518;BME280;42419;48.760;2.322;2023-09-07T01:27:57;100864.63;;;27.62;41.12
56518;BME280;42419;48.760;2.322;2023-09-07T01:30:23;100861.69;;;27.65;40.97
56518;BME280;42419;48.760;2.322;2023-09-07T01:32:48;100862.66;;;27.64;40.94
56518;BME280;42419;48.760;2.322;2023-09-07T01:35:15;100862.66;;;27.64;40.99
56518;BME280;42419;48.760;2.322;2023-09-07T01:37:42;100864.47;;;27.63;41.02
56518;BME280;42419;48.760;2.322;2023-09-07T01:40:07;100866.31;;;27.63;40.91
56518;BME280;42419;48.760;2.322;2023-09-07T01:42:33;100852.91;;;27.61;41.14
56518;BME280;42419;48.760;2.322;2023-09-07T01:44:59;100847.06;;;27.55;40.97
56518;BME280;42419;48.760;2.322;2023-09-07T01:47:24;100861.13;;;27.60;41.00
56518;BME280;42419;48.760;2.322;2023-09-07T01:49:49;100861.13;;;27.60;40.81
56518;BME280;42419;48.760;2.322;2023-09-07T01:52:15;100860.34;;;27.58;40.64
56518;BME280;42419;48.760;2.322;2023-09-07T01:54:40;100865.78;;;27.58;41.06
56518;BME280;42419;48.760;2.322;2023-09-07T01:57:05;100853.25;;;27.57;40.70
56518;BME280;42419;48.760;2.322;2023-09-07T01:59:30;100857.78;;;27.56;40.65
56518;BME280;42419;48.760;2.322;2023-09-07T02:01:56;100851.72;;;27.53;40.76
56518;BME280;42419;48.760;2.322;2023-09-07T02:04:21;100854.31;;;27.54;40.90
56518;BME280;42419;48.760;2.322;2023-09-07T02:06:46;100849.97;;;27.52;40.75
56518;BME280;42419;48.760;2.322;2023-09-07T02:09:12;100857.13;;;27.53;40.67
56518;BME280;42419;48.760;2.322;2023-09-07T02:11:37;100846.31;;;27.53;40.90
56518;BME280;42419;48.760;2.322;2023-09-07T02:14:02;100850.84;;;27.52;41.12
56518;BME280;42419;48.760;2.322;2023-09-07T02:16:27;100850.84;;;27.52;40.97
56518;BME280;42419;48.760;2.322;2023-09-07T02:19:01;100836.09;;;27.44;40.80
56518;BME280;42419;48.760;2.322;2023-09-07T02:21:27;100845.53;;;27.51;40.78
56518;BME280;42419;48.760;2.322;2023-09-07T02:23:52;100850.22;;;27.49;40.74
56518;BME280;42419;48.760;2.322;2023-09-07T02:26:17;100851.03;;;27.49;40.86
56518;BME280;42419;48.760;2.322;2023-09-07T02:28:43;100814.75;;;27.27;40.79
56518;BME280;42419;48.760;2.322;2023-09-07T02:31:08;100840.53;;;27.45;40.55
56518;BME280;42419;48.760;2.322;2023-09-07T02:33:34;100841.69;;;27.41;40.63
56518;BME280;42419;48.760;2.322;2023-09-07T02:36:00;100841.31;;;27.47;40.55
56518;BME280;42419;48.760;2.322;2023-09-07T02:38:25;100850.41;;;27.46;40.64
56518;BME280;42419;48.760;2.322;2023-09-07T02:40:51;100842.28;;;27.46;40.58
56518;BME280;42419;48.760;2.322;2023-09-07T02:43:17;100850.41;;;27.46;40.66
56518;BME280;42419;48.760;2.322;2023-09-07T02:45:42;100848.66;;;27.45;40.43
56518;BME280;42419;48.760;2.322;2023-09-07T02:48:08;100851.44;;;27.43;40.51
56518;BME280;42419;48.760;2.322;2023-09-07T02:50:34;100852.31;;;27.44;40.68
56518;BME280;42419;48.760;2.322;2023-09-07T02:53:00;100846.03;;;27.43;40.65
56518;BME280;42419;48.760;2.322;2023-09-07T02:55:26;100850.59;;;27.43;40.46
56518;BME280;42419;48.760;2.322;2023-09-07T02:57:52;100853.38;;;27.41;40.69
56518;BME280;42419;48.760;2.322;2023-09-07T03:00:17;100837.38;;;27.38;40.52
56518;BME280;42419;48.760;2.322;2023-09-07T03:02:43;100844.41;;;27.41;40.50
56518;BME280;42419;48.760;2.322;2023-09-07T03:05:09;100845.50;;;27.38;40.30
56518;BME280;42419;48.760;2.322;2023-09-07T03:07:34;100846.22;;;27.40;40.42
56518;BME280;42419;48.760;2.322;2023-09-07T03:10:00;100845.50;;;27.38;40.21
56518;BME280;42419;48.760;2.322;2023-09-07T03:12:26;100833.25;;;27.33;40.21
56518;BME280;42419;48.760;2.322;2023-09-07T03:14:51;100821.78;;;27.29;40.24
56518;BME280;42419;48.760;2.322;2023-09-07T03:17:18;100826.66;;;27.37;40.07
56518;BME280;42419;48.760;2.322;2023-09-07T03:19:45;100823.94;;;27.37;40.11
56518;BME280;42419;48.760;2.322;2023-09-07T03:22:11;100834.75;;;27.37;40.21
56518;BME280;42419;48.760;2.322;2023-09-07T03:24:36;100833.03;;;27.36;40.08
56518;BME280;42419;48.760;2.322;2023-09-07T03:27:02;100833.25;;;27.33;40.30
56518;BME280;42419;48.760;2.322;2023-09-07T03:29:29;100824.47;;;27.29;40.02
56518;BME280;42419;48.760;2.322;2023-09-07T03:31:55;100836.16;;;27.30;40.33
56518;BME280;42419;48.760;2.322;2023-09-07T03:34:20;100836.91;;;27.32;39.94
56518;BME280;42419;48.760;2.322;2023-09-07T03:36:46;100832.28;;;27.34;40.12
56518;BME280;42419;48.760;2.322;2023-09-07T03:39:11;100835.94;;;27.33;40.04
56518;BME280;42419;48.760;2.322;2023-09-07T03:41:36;100834.34;;;27.30;40.03
56518;BME280;42419;48.760;2.322;2023-09-07T03:44:02;100838.66;;;27.33;39.83
56518;BME280;42419;48.760;2.322;2023-09-07T03:46:27;100834.22;;;27.32;39.84
56518;BME280;42419;48.760;2.322;2023-09-07T03:48:52;100831.50;;;27.32;39.95
56518;BME280;42419;48.760;2.322;2023-09-07T03:51:18;100833.34;;;27.31;39.98
56518;BME280;42419;48.760;2.322;2023-09-07T03:53:43;100840.63;;;27.31;40.00
56518;BME280;42419;48.760;2.322;2023-09-07T03:56:09;100832.13;;;27.22;39.89
56518;BME280;42419;48.760;2.322;2023-09-07T03:58:34;100843.41;;;27.29;39.97
56518;BME280;42419;48.760;2.322;2023-09-07T04:00:59;100833.88;;;27.23;40.03
56518;BME280;42419;48.760;2.322;2023-09-07T04:03:25;100846.22;;;27.28;40.13
56518;BME280;42419;48.760;2.322;2023-09-07T04:05:51;100835.06;;;27.19;40.28
56518;BME280;42419;48.760;2.322;2023-09-07T04:08:16;100848.03;;;27.27;40.08
56518;BME280;42419;48.760;2.322;2023-09-07T04:10:41;100849.03;;;27.26;40.12
56518;BME280;42419;48.760;2.322;2023-09-07T04:13:07;100838.31;;;27.24;40.17
56518;BME280;42419;48.760;2.322;2023-09-07T04:15:42;100846.44;;;27.24;40.26
56518;BME280;42419;48.760;2.322;2023-09-07T04:18:08;100842.75;;;27.26;40.78
56518;BME280;42419;48.760;2.322;2023-09-07T04:20:33;100833.31;;;27.18;40.10
56518;BME280;42419;48.760;2.322;2023-09-07T04:22:59;100836.59;;;27.23;39.94
56518;BME280;42419;48.760;2.322;2023-09-07T04:25:24;100838.41;;;27.23;39.90
56518;BME280;42419;48.760;2.322;2023-09-07T04:27:51;100844.69;;;27.23;40.12
56518;BME280;42419;48.760;2.322;2023-09-07T04:30:16;100836.72;;;27.22;40.07
56518;BME280;42419;48.760;2.322;2023-09-07T04:32:42;100787.31;;;26.93;40.26
56518;BME280;42419;48.760;2.322;2023-09-07T04:35:07;100839.41;;;27.22;40.03
56518;BME280;42419;48.760;2.322;2023-09-07T04:37:32;100837.53;;;27.22;40.08
56518;BME280;42419;48.760;2.322;2023-09-07T04:39:58;100828.91;;;27.17;40.01
56518;BME280;42419;48.760;2.322;2023-09-07T04:42:23;100833.13;;;27.21;40.21
56518;BME280;42419;48.760;2.322;2023-09-07T04:44:51;100834.09;;;27.20;40.06
56518;BME280;42419;48.760;2.322;2023-09-07T04:47:17;100831.38;;;27.20;40.15
56518;BME280;42419;48.760;2.322;2023-09-07T04:49:42;100834.09;;;27.20;40.10
56518;BME280;42419;48.760;2.322;2023-09-07T04:52:08;100837.75;;;27.19;40.28
56518;BME280;42419;48.760;2.322;2023-09-07T04:54:34;100834.09;;;27.20;40.22
56518;BME280;42419;48.760;2.322;2023-09-07T04:56:59;100836.88;;;27.19;40.23
56518;BME280;42419;48.760;2.322;2023-09-07T04:59:25;100832.34;;;27.19;40.25
56518;BME280;42419;48.760;2.322;2023-09-07T05:01:50;100830.63;;;27.18;40.59
56518;BME280;42419;48.760;2.322;2023-09-07T05:04:15;100837.75;;;27.19;40.15
56518;BME280;42419;48.760;2.322;2023-09-07T05:06:41;100834.31;;;27.17;40.09
56518;BME280;42419;48.760;2.322;2023-09-07T05:09:06;100842.28;;;27.19;40.34
56518;BME280;42419;48.760;2.322;2023-09-07T05:11:32;100837.19;;;27.14;40.32
56518;BME280;42419;48.760;2.322;2023-09-07T05:14:00;100853.25;;;27.17;40.40
56518;BME280;42419;48.760;2.322;2023-09-07T05:16:26;100844.25;;;27.17;40.32
56518;BME280;42419;48.760;2.322;2023-09-07T05:18:51;100855.06;;;27.17;40.27
56518;BME280;42419;48.760;2.322;2023-09-07T05:21:16;100857.88;;;27.15;40.24
56518;BME280;42419;48.760;2.322;2023-09-07T05:23:42;100856.91;;;27.16;40.44
56518;BME280;42419;48.760;2.322;2023-09-07T05:26:08;100860.47;;;27.17;40.42
56518;BME280;42419;48.760;2.322;2023-09-07T05:28:33;100859.59;;;27.16;40.55
56518;BME280;42419;48.760;2.322;2023-09-07T05:30:59;100856.78;;;27.18;40.33
56518;BME280;42419;48.760;2.322;2023-09-07T05:33:24;100863.19;;;27.17;40.64
56518;BME280;42419;48.760;2.322;2023-09-07T05:35:49;100858.53;;;27.19;40.99
56518;BME280;42419;48.760;2.322;2023-09-07T05:38:15;100857.88;;;27.15;40.57
56518;BME280;42419;48.760;2.322;2023-09-07T05:40:42;100863.81;;;27.08;39.96
56518;BME280;42419;48.760;2.322;2023-09-07T05:43:08;100864.41;;;26.99;39.96
56518;BME280;42419;48.760;2.322;2023-09-07T05:45:35;100869.56;;;26.89;39.99
56518;BME280;42419;48.760;2.322;2023-09-07T05:48:04;100861.16;;;26.79;40.13
56518;BME280;42419;48.760;2.322;2023-09-07T05:50:30;100859.94;;;26.71;39.97
56518;BME280;42419;48.760;2.322;2023-09-07T05:52:55;100859.00;;;26.58;40.32
56518;BME280;42419;48.760;2.322;2023-09-07T05:55:20;100856.22;;;26.45;40.62
56518;BME280;42419;48.760;2.322;2023-09-07T05:57:46;100862.50;;;26.46;40.64
56518;BME280;42419;48.760;2.322;2023-09-07T06:00:12;100862.38;;;26.33;40.85
56518;BME280;42419;48.760;2.322;2023-09-07T06:02:38;100871.75;;;26.27;40.92
56518;BME280;42419;48.760;2.322;2023-09-07T06:05:07;100860.56;;;26.19;40.77
56518;BME280;42419;48.760;2.322;2023-09-07T06:07:32;100871.53;;;26.16;40.89
56518;BME280;42419;48.760;2.322;2023-09-07T06:09:57;100864.81;;;26.09;41.21
56518;BME280;42419;48.760;2.322;2023-09-07T06:12:26;100868.47;;;26.08;41.57
56518;BME280;42419;48.760;2.322;2023-09-07T06:14:51;100872.97;;;26.08;41.46
56518;BME280;42419;48.760;2.322;2023-09-07T06:17:16;100877.63;;;26.06;41.55
56518;BME280;42419;48.760;2.322;2023-09-07T06:19:42;100886.84;;;26.02;41.79
56518;BME280;42419;48.760;2.322;2023-09-07T06:22:07;100885.13;;;26.01;41.87
56518;BME280;42419;48.760;2.322;2023-09-07T06:24:33;100886.38;;;25.95;41.70
56518;BME280;42419;48.760;2.322;2023-09-07T06:26:58;100891.84;;;25.93;41.75
56518;BME280;42419;48.760;2.322;2023-09-07T06:29:23;100886.56;;;25.92;41.70
56518;BME280;42419;48.760;2.322;2023-09-07T06:31:49;100883.97;;;25.90;42.04
56518;BME280;42419;48.760;2.322;2023-09-07T06:34:15;100875.94;;;25.89;42.17
56518;BME280;42419;48.760;2.322;2023-09-07T06:36:41;100866.50;;;25.82;42.01
56518;BME280;42419;48.760;2.322;2023-09-07T06:39:06;100878.84;;;25.86;41.90
56518;BME280;42419;48.760;2.322;2023-09-07T06:41:31;100866.72;;;25.79;41.73
56518;BME280;42419;48.760;2.322;2023-09-07T06:43:57;100883.38;;;25.85;41.71
56518;BME280;42419;48.760;2.322;2023-09-07T06:46:25;100882.50;;;25.85;40.93
56518;BME280;42419;48.760;2.322;2023-09-07T06:48:50;100884.25;;;25.86;40.43
56518;BME280;42419;48.760;2.322;2023-09-07T06:51:16;100885.31;;;25.83;40.53
56518;BME280;42419;48.760;2.322;2023-09-07T06:53:41;100876.13;;;25.72;40.75
56518;BME280;42419;48.760;2.322;2023-09-07T06:56:06;100883.44;;;25.84;40.29
56518;BME280;42419;48.760;2.322;2023-09-07T06:58:32;100881.91;;;25.80;40.06
56518;BME280;42419;48.760;2.322;2023-09-07T07:00:59;100887.91;;;25.85;39.85
56518;BME280;42419;48.760;2.322;2023-09-07T07:03:26;100887.91;;;25.85;39.91
56518;BME280;42419;48.760;2.322;2023-09-07T07:05:52;100890.59;;;25.85;39.83
56518;BME280;42419;48.760;2.322;2023-09-07T07:08:17;100889.63;;;25.86;39.94
56518;BME280;42419;48.760;2.322;2023-09-07T07:10:43;100896.94;;;25.84;39.82
56518;BME280;42419;48.760;2.322;2023-09-07T07:13:08;100876.63;;;25.78;39.77
56518;BME280;42419;48.760;2.322;2023-09-07T07:15:34;100893.50;;;25.82;40.15
56518;BME280;42419;48.760;2.322;2023-09-07T07:18:01;100879.41;;;25.77;39.58
56518;BME280;42419;48.760;2.322;2023-09-07T07:20:26;100881.84;;;25.81;39.82
56518;BME280;42419;48.760;2.322;2023-09-07T07:22:51;100882.47;;;25.71;39.75
56518;BME280;42419;48.760;2.322;2023-09-07T07:25:17;100892.69;;;25.80;39.93
56518;BME280;42419;48.760;2.322;2023-09-07T07:27:42;100890.13;;;25.78;39.95
56518;BME280;42419;48.760;2.322;2023-09-07T07:30:08;100887.41;;;25.78;39.95
56518;BME280;42419;48.760;2.322;2023-09-07T07:32:33;100891.94;;;25.78;39.39
56518;BME280;42419;48.760;2.322;2023-09-07T07:34:59;100886.72;;;25.75;39.67
56518;BME280;42419;48.760;2.322;2023-09-07T07:37:25;100893.78;;;25.77;39.48
56518;BME280;42419;48.760;2.322;2023-09-07T07:39:50;100898.28;;;25.77;39.85
56518;BME280;42419;48.760;2.322;2023-09-07T07:42:16;100894.72;;;25.76;39.85
56518;BME280;42419;48.760;2.322;2023-09-07T07:44:44;100893.84;;;25.76;40.13
56518;BME280;42419;48.760;2.322;2023-09-07T07:47:09;100897.34;;;25.78;40.12
56518;BME280;42419;48.760;2.322;2023-09-07T07:49:34;100894.44;;;25.81;39.68
56518;BME280;42419;48.760;2.322;2023-09-07T07:52:01;100896.28;;;25.80;40.05
56518;BME280;42419;48.760;2.322;2023-09-07T07:54:26;100879.94;;;25.68;39.82
56518;BME280;42419;48.760;2.322;2023-09-07T07:56:53;100891.75;;;25.81;40.16
56518;BME280;42419;48.760;2.322;2023-09-07T07:59:19;100899.25;;;25.76;39.94
56518;BME280;42419;48.760;2.322;2023-09-07T08:01:44;100902.91;;;25.75;40.35
56518;BME280;42419;48.760;2.322;2023-09-07T08:04:09;100895.78;;;25.74;40.15
56518;BME280;42419;48.760;2.322;2023-09-07T08:06:35;100902.81;;;25.76;39.87
56518;BME280;42419;48.760;2.322;2023-09-07T08:09:00;100877.31;;;25.66;40.22
56518;BME280;42419;48.760;2.322;2023-09-07T08:11:26;100900.78;;;25.80;40.25
56518;BME280;42419;48.760;2.322;2023-09-07T08:13:52;100894.44;;;25.81;39.80
56518;BME280;42419;48.760;2.322;2023-09-07T08:16:17;100901.59;;;25.82;39.87
56518;BME280;42419;48.760;2.322;2023-09-07T08:18:43;100898.69;;;25.85;40.34
56518;BME280;42419;48.760;2.322;2023-09-07T08:21:09;100892.69;;;25.80;39.92
56518;BME280;42419;48.760;2.322;2023-09-07T08:23:34;100903.91;;;25.88;40.06
56518;BME280;42419;48.760;2.322;2023-09-07T08:25:59;100902.84;;;25.90;40.09
56518;BME280;42419;48.760;2.322;2023-09-07T08:28:25;100898.25;;;25.92;40.04
56518;BME280;42419;48.760;2.322;2023-09-07T08:30:52;100901.69;;;25.95;39.86
56518;BME280;42419;48.760;2.322;2023-09-07T08:33:21;100886.28;;;25.97;39.77
56518;BME280;42419;48.760;2.322;2023-09-07T08:35:55;100875.94;;;25.89;39.58
56518;BME280;42419;48.760;2.322;2023-09-07T08:38:21;100890.63;;;25.99;39.53
56518;BME280;42419;48.760;2.322;2023-09-07T08:41:01;100879.44;;;25.91;39.67
56518;BME280;42419;48.760;2.322;2023-09-07T08:43:33;100891.41;;;26.01;39.66
56518;BME280;42419;48.760;2.322;2023-09-07T08:46:04;100880.69;;;26.00;39.83
56518;BME280;42419;48.760;2.322;2023-09-07T08:48:34;100885.72;;;26.06;39.64
56518;BME280;42419;48.760;2.322;2023-09-07T08:51:02;100882.91;;;26.07;39.78
56518;BME280;42419;48.760;2.322;2023-09-07T08:53:30;100881.00;;;26.09;39.95
56518;BME280;42419;48.760;2.322;2023-09-07T08:55:55;100879.16;;;26.10;39.67
56518;BME280;42419;48.760;2.322;2023-09-07T08:58:20;100881.47;;;26.16;39.99
56518;BME280;42419;48.760;2.322;2023-09-07T09:00:46;100876.94;;;26.16;39.67
56518;BME280;42419;48.760;2.322;2023-09-07T09:03:12;100867.97;;;26.16;39.61
56518;BME280;42419;48.760;2.322;2023-09-07T09:05:39;100871.16;;;26.22;39.65
56518;BME280;42419;48.760;2.322;2023-09-07T09:08:05;100863.16;;;26.21;39.49
56518;BME280;42419;48.760;2.322;2023-09-07T09:10:31;100877.13;;;26.27;39.77
56518;BME280;42419;48.760;2.322;2023-09-07T09:12:57;100850.44;;;26.23;39.58
56518;BME280;42419;48.760;2.322;2023-09-07T09:15:25;100868.66;;;26.33;39.82
56518;BME280;42419;48.760;2.322;2023-09-07T09:17:50;100866.66;;;26.37;39.87
56518;BME280;42419;48.760;2.322;2023-09-07T09:20:25;100873.59;;;26.41;39.53
56518;BME280;42419;48.760;2.322;2023-09-07T09:22:54;100873.31;;;26.46;39.64
56518;BME280;42419;48.760;2.322;2023-09-07T09:25:21;100870.38;;;26.49;39.95
56518;BME280;42419;48.760;2.322;2023-09-07T09:27:47;100877.25;;;26.54;39.54
56518;BME280;42419;48.760;2.322;2023-09-07T09:30:13;100880.50;;;26.59;39.35
56518;BME280;42419;48.760;2.322;2023-09-07T09:32:42;100874.81;;;26.64;39.44
56518;BME280;42419;48.760;2.322;2023-09-07T09:35:08;100878.06;;;26.69;39.92
56518;BME280;42419;48.760;2.322;2023-09-07T09:37:42;100880.28;;;26.76;40.44
56518;BME280;42419;48.760;2.322;2023-09-07T09:40:08;100873.69;;;26.80;40.81
56518;BME280;42419;48.760;2.322;2023-09-07T09:42:35;100860.94;;;26.83;40.98
56518;BME280;42419;48.760;2.322;2023-09-07T09:45:01;100877.06;;;26.98;40.21
56518;BME280;42419;48.760;2.322;2023-09-07T09:47:28;100875.88;;;27.02;40.18
56518;BME280;42419;48.760;2.322;2023-09-07T09:49:56;100876.63;;;27.04;39.31
56518;BME280;42419;48.760;2.322;2023-09-07T09:52:23;100879.16;;;27.07;39.11
56518;BME280;42419;48.760;2.322;2023-09-07T09:54:50;100875.19;;;27.13;39.16
56518;BME280;42419;48.760;2.322;2023-09-07T09:57:15;100873.88;;;27.18;39.35
56518;BME280;42419;48.760;2.322;2023-09-07T09:59:41;100872.50;;;27.26;38.86
56518;BME280;42419;48.760;2.322;2023-09-07T10:02:06;100869.81;;;27.26;38.67
56518;BME280;42419;48.760;2.322;2023-09-07T10:04:33;100873.50;;;27.37;38.77
56518;BME280;42419;48.760;2.322;2023-09-07T10:06:59;100869.50;;;27.43;38.36
56518;BME280;42419;48.760;2.322;2023-09-07T10:09:33;100873.56;;;27.50;38.93
56518;BME280;42419;48.760;2.322;2023-09-07T10:11:59;100858.09;;;27.52;39.25
56518;BME280;42419;48.760;2.322;2023-09-07T10:14:25;100860.34;;;27.58;39.44
56518;BME280;42419;48.760;2.322;2023-09-07T10:16:52;100869.47;;;27.70;38.59
56518;BME280;42419;48.760;2.322;2023-09-07T10:19:23;100870.34;;;27.70;38.65
56518;BME280;42419;48.760;2.322;2023-09-07T10:21:50;100876.41;;;27.74;39.41
56518;BME280;42419;48.760;2.322;2023-09-07T10:24:34;100866.34;;;27.76;39.04
56518;BME280;42419;48.760;2.322;2023-09-07T10:27:07;100866.03;;;27.80;39.09
56518;BME280;42419;48.760;2.322;2023-09-07T10:29:50;100869.47;;;27.82;39.40
56518;BME280;42419;48.760;2.322;2023-09-07T10:32:17;100854.75;;;27.86;39.41
56518;BME280;42419;48.760;2.322;2023-09-07T10:34:42;100864.63;;;27.87;39.05
56518;BME280;42419;48.760;2.322;2023-09-07T10:37:11;100862.78;;;27.88;38.39
56518;BME280;42419;48.760;2.322;2023-09-07T10:39:41;100864.94;;;27.95;39.11
56518;BME280;42419;48.760;2.322;2023-09-07T10:42:23;100842.97;;;27.87;39.85
56518;BME280;42419;48.760;2.322;2023-09-07T10:44:49;100862.81;;;28.00;38.95
56518;BME280;42419;48.760;2.322;2023-09-07T10:47:15;100858.16;;;28.02;39.54
56518;BME280;42419;48.760;2.322;2023-09-07T10:49:40;100856.19;;;28.04;39.03
56518;BME280;42419;48.760;2.322;2023-09-07T10:52:06;100842.03;;;28.01;38.46
56518;BME280;42419;48.760;2.322;2023-09-07T10:54:31;100855.00;;;28.08;39.09
56518;BME280;42419;48.760;2.322;2023-09-07T10:57:07;100831.94;;;28.03;39.07
56518;BME280;42419;48.760;2.322;2023-09-07T10:59:32;100845.56;;;28.14;39.39
56518;BME280;42419;48.760;2.322;2023-09-07T11:02:04;100836.81;;;28.10;38.99
56518;BME280;42419;48.760;2.322;2023-09-07T11:04:29;100838.88;;;28.20;39.22
56518;BME280;42419;48.760;2.322;2023-09-07T11:06:54;100842.44;;;28.20;38.36
56518;BME280;42419;48.760;2.322;2023-09-07T11:09:20;100842.22;;;28.23;38.43
56518;BME280;42419;48.760;2.322;2023-09-07T11:11:46;100841.09;;;28.26;38.81
56518;BME280;42419;48.760;2.322;2023-09-07T11:14:12;100831.28;;;28.25;38.48
56518;BME280;42419;48.760;2.322;2023-09-07T11:16:40;100839.06;;;28.29;38.80
56518;BME280;42419;48.760;2.322;2023-09-07T11:19:06;100847.06;;;28.31;38.68
56518;BME280;42419;48.760;2.322;2023-09-07T11:21:34;100848.81;;;28.32;38.64
56518;BME280;42419;48.760;2.322;2023-09-07T11:24:00;100847.81;;;28.33;38.34
56518;BME280;42419;48.760;2.322;2023-09-07T11:26:25;100844.97;;;28.34;38.21
56518;BME280;42419;48.760;2.322;2023-09-07T11:28:51;100837.72;;;28.35;38.49
56518;BME280;42419;48.760;2.322;2023-09-07T11:31:19;100835.03;;;28.35;37.99
56518;BME280;42419;48.760;2.322;2023-09-07T11:33:48;100842.19;;;28.36;38.14
56518;BME280;42419;48.760;2.322;2023-09-07T11:36:14;100840.34;;;28.36;38.29
56518;BME280;42419;48.760;2.322;2023-09-07T11:38:42;100783.88;;;28.06;38.68
56518;BME280;42419;48.760;2.322;2023-09-07T11:41:08;100828.88;;;28.33;38.58
56518;BME280;42419;48.760;2.322;2023-09-07T11:43:33;100831.56;;;28.33;38.69
56518;BME280;42419;48.760;2.322;2023-09-07T11:45:59;100801.59;;;28.23;38.89
56518;BME280;42419;48.760;2.322;2023-09-07T11:48:25;100819.44;;;28.26;38.35
56518;BME280;42419;48.760;2.322;2023-09-07T11:50:51;100824.53;;;28.30;38.83
56518;BME280;42419;48.760;2.322;2023-09-07T11:53:16;100828.09;;;28.31;38.62
56518;BME280;42419;48.760;2.322;2023-09-07T11:55:41;100825.41;;;28.31;39.02
56518;BME280;42419;48.760;2.322;2023-09-07T11:58:08;100815.53;;;28.30;39.12
56518;BME280;42419;48.760;2.322;2023-09-07T12:00:34;100817.28;;;28.31;38.94
56518;BME280;42419;48.760;2.322;2023-09-07T12:02:59;100804.69;;;28.30;39.15
56518;BME280;42419;48.760;2.322;2023-09-07T12:05:24;100819.75;;;28.34;39.21
56518;BME280;42419;48.760;2.322;2023-09-07T12:07:50;100808.91;;;28.34;39.26
56518;BME280;42419;48.760;2.322;2023-09-07T12:10:15;100800.28;;;28.29;39.31
56518;BME280;42419;48.760;2.322;2023-09-07T12:12:41;100787.94;;;28.25;39.30
56518;BME280;42419;48.760;2.322;2023-09-07T12:15:07;100806.00;;;28.37;39.27
56518;BME280;42419;48.760;2.322;2023-09-07T12:17:34;100809.56;;;28.37;39.37
56518;BME280;42419;48.760;2.322;2023-09-07T12:20:00;100794.88;;;28.29;39.16
56518;BME280;42419;48.760;2.322;2023-09-07T12:22:28;100812.16;;;28.39;39.42
56518;BME280;42419;48.760;2.322;2023-09-07T12:24:54;100799.81;;;28.35;39.12
56518;BME280;42419;48.760;2.322;2023-09-07T12:27:19;100808.38;;;28.41;39.13
56518;BME280;42419;48.760;2.322;2023-09-07T12:29:45;100809.09;;;28.43;39.56
56518;BME280;42419;48.760;2.322;2023-09-07T12:32:10;100809.09;;;28.43;39.39
56518;BME280;42419;48.760;2.322;2023-09-07T12:34:36;100806.28;;;28.45;39.33
56518;BME280;42419;48.760;2.322;2023-09-07T12:37:02;100804.44;;;28.45;39.13
56518;BME280;42419;48.760;2.322;2023-09-07T12:39:29;100813.31;;;28.47;39.43
56518;BME280;42419;48.760;2.322;2023-09-07T12:41:55;100807.06;;;28.47;39.30
56518;BME280;42419;48.760;2.322;2023-09-07T12:44:20;100800.00;;;28.44;39.01
56518;BME280;42419;48.760;2.322;2023-09-07T12:46:46;100798.69;;;28.50;39.08